createdAt,value
2018-03-25T00:00:30.360Z,21.20
2018-03-25T00:02:57.987Z,18.67
2018-03-25T00:05:25.621Z,22.07
2018-03-25T00:07:53.970Z,19.30
2018-03-25T00:10:21.690Z,17.87
2018-03-25T00:12:49.346Z,17.47
2018-03-25T00:15:16.917Z,19.20
2018-03-25T00:17:44.501Z,19.00
2018-03-25T00:20:12.069Z,19.60
2018-03-25T00:22:39.630Z,21.47
2018-03-25T00:25:07.202Z,19.33
2018-03-25T00:27:35.719Z,19.63
2018-03-25T00:30:03.312Z,21.70
2018-03-25T00:32:30.914Z,21.60
2018-03-25T00:34:58.465Z,19.90
2018-03-25T00:37:26.247Z,19.83
2018-03-25T00:39:54.601Z,20.10
2018-03-25T00:42:22.186Z,18.67
2018-03-25T00:44:50.517Z,18.17
2018-03-25T00:47:18.062Z,18.93
2018-03-25T00:49:45.630Z,19.80
2018-03-25T00:52:13.203Z,20.30
2018-03-25T00:54:40.777Z,20.37
2018-03-25T00:57:08.330Z,19.20
2018-03-25T00:59:35.900Z,22.57
2018-03-25T01:02:03.425Z,19.50
2018-03-25T01:04:31.661Z,23.63
2018-03-25T01:06:59.213Z,20.37
2018-03-25T01:09:27.532Z,22.23
2018-03-25T01:11:55.100Z,20.80
2018-03-25T01:14:22.692Z,22.47
2018-03-25T01:16:50.261Z,23.17
2018-03-25T01:19:17.806Z,20.50
2018-03-25T01:21:45.367Z,20.70
2018-03-25T01:24:12.941Z,22.03
2018-03-25T01:26:40.501Z,20.07
2018-03-25T01:29:08.286Z,19.90
2018-03-25T01:31:41.201Z,22.27
2018-03-25T01:34:08.744Z,19.00
2018-03-25T01:36:36.416Z,18.80
2018-03-25T01:39:03.945Z,19.10
2018-03-25T01:41:32.270Z,20.87
2018-03-25T01:43:59.872Z,19.67
2018-03-25T01:46:27.406Z,22.00
2018-03-25T01:48:55.034Z,19.13
2018-03-25T01:51:22.595Z,21.27
2018-03-25T01:53:50.250Z,22.13
2018-03-25T01:56:19.655Z,21.97
2018-03-25T01:58:47.248Z,20.10
2018-03-25T02:01:14.863Z,20.20
2018-03-25T02:03:43.202Z,20.53
2018-03-25T02:06:12.343Z,20.67
2018-03-25T02:08:41.932Z,20.03
2018-03-25T02:11:09.947Z,20.40
2018-03-25T02:13:37.583Z,20.37
2018-03-25T02:16:05.911Z,18.67
2018-03-25T02:18:33.465Z,20.47
2018-03-25T02:21:01.025Z,20.23
2018-03-25T02:23:28.581Z,20.20
2018-03-25T02:25:56.141Z,22.57
2018-03-25T02:28:24.289Z,19.73
2018-03-25T02:30:51.838Z,21.17
2018-03-25T02:33:20.158Z,23.47
2018-03-25T02:35:47.827Z,22.30
2018-03-25T02:38:15.550Z,21.10
2018-03-25T02:40:43.242Z,21.83
2018-03-25T02:43:10.782Z,23.00
2018-03-25T02:45:38.350Z,19.17
2018-03-25T02:48:06.003Z,21.23
2018-03-25T02:50:33.588Z,23.97
2018-03-25T02:53:01.150Z,23.90
2018-03-25T02:55:28.712Z,21.70
2018-03-25T02:57:56.343Z,22.60
2018-03-25T03:00:24.091Z,22.87
2018-03-25T03:02:51.634Z,20.93
2018-03-25T03:05:19.961Z,22.53
2018-03-25T03:07:47.689Z,22.47
2018-03-25T03:10:16.172Z,23.17
2018-03-25T03:12:43.753Z,20.43
2018-03-25T03:15:11.546Z,22.97
2018-03-25T03:17:39.117Z,20.07
2018-03-25T03:20:06.684Z,23.43
2018-03-25T03:22:35.030Z,23.00
2018-03-25T03:25:02.585Z,21.87
2018-03-25T03:27:30.166Z,24.33
2018-03-25T03:29:57.720Z,26.40
2018-03-25T03:32:25.396Z,25.07
2018-03-25T03:34:52.992Z,24.03
2018-03-25T03:37:21.326Z,21.77
2018-03-25T03:39:49.046Z,22.63
2018-03-25T03:42:16.601Z,23.73
2018-03-25T03:44:44.162Z,20.37
2018-03-25T03:47:11.704Z,22.40
2018-03-25T03:49:40.114Z,20.93
2018-03-25T03:52:07.695Z,24.43
2018-03-25T03:54:35.237Z,24.40
2018-03-25T03:57:02.776Z,22.47
2018-03-25T03:59:30.345Z,24.13
2018-03-25T04:01:57.901Z,22.50
2018-03-25T04:04:25.510Z,23.00
2018-03-25T04:06:53.056Z,23.07
2018-03-25T04:09:20.618Z,22.80
2018-03-25T04:11:48.154Z,22.17
2018-03-25T04:14:16.323Z,21.27
2018-03-25T04:16:43.922Z,23.63
2018-03-25T04:19:11.662Z,24.83
2018-03-25T04:21:39.221Z,23.17
2018-03-25T04:24:06.931Z,23.50
2018-03-25T04:26:34.520Z,23.27
2018-03-25T04:29:03.131Z,25.57
2018-03-25T04:31:30.686Z,21.23
2018-03-25T04:33:58.254Z,21.00
2018-03-25T04:36:25.821Z,25.40
2018-03-25T04:38:53.369Z,22.70
2018-03-25T04:41:20.941Z,21.27
2018-03-25T04:43:48.593Z,24.30
2018-03-25T04:46:16.168Z,23.33
2018-03-25T04:48:43.724Z,23.47
2018-03-25T04:51:13.278Z,28.77
2018-03-25T04:53:41.602Z,23.07
2018-03-25T04:56:09.180Z,23.43
2018-03-25T04:58:36.733Z,20.90
2018-03-25T05:01:05.325Z,21.57
2018-03-25T05:03:32.873Z,23.60
2018-03-25T05:06:01.214Z,22.40
2018-03-25T05:08:28.776Z,22.37
2018-03-25T05:10:57.196Z,22.93
2018-03-25T05:13:24.766Z,22.83
2018-03-25T05:15:53.797Z,24.57
2018-03-25T05:18:22.718Z,23.40
2018-03-25T05:20:50.257Z,23.20
2018-03-25T05:23:17.840Z,23.20
2018-03-25T05:25:45.394Z,23.83
2018-03-25T05:28:12.980Z,24.33
2018-03-25T05:30:42.361Z,20.17
2018-03-25T05:33:12.603Z,23.83
2018-03-25T05:35:40.965Z,24.33
2018-03-25T05:38:08.518Z,22.23
2018-03-25T05:40:36.076Z,22.47
2018-03-25T05:43:03.644Z,21.03
2018-03-25T05:45:31.193Z,21.33
2018-03-25T05:47:58.778Z,21.53
2018-03-25T05:50:26.348Z,22.63
2018-03-25T05:52:53.931Z,22.07
2018-03-25T05:55:21.504Z,22.73
2018-03-25T05:57:49.858Z,24.13
2018-03-25T06:00:18.219Z,21.30
2018-03-25T06:02:45.758Z,25.50
2018-03-25T06:05:13.726Z,22.23
2018-03-25T06:07:41.288Z,29.23
2018-03-25T06:10:09.025Z,26.80
2018-03-25T06:12:37.363Z,24.13
2018-03-25T06:15:04.982Z,24.43
2018-03-25T06:17:32.557Z,23.80
2018-03-25T06:20:00.132Z,24.10
2018-03-25T06:22:27.687Z,23.37
2018-03-25T06:24:55.257Z,24.87
2018-03-25T06:27:22.817Z,25.83
2018-03-25T06:29:50.521Z,23.07
2018-03-25T06:32:18.869Z,22.47
2018-03-25T06:34:46.457Z,24.40
2018-03-25T06:37:14.797Z,25.00
2018-03-25T06:39:42.473Z,26.33
2018-03-25T06:42:10.057Z,24.43
2018-03-25T06:44:38.392Z,24.17
2018-03-25T06:47:06.800Z,22.00
2018-03-25T06:49:34.345Z,24.73
2018-03-25T06:52:01.931Z,23.43
2018-03-25T06:54:29.511Z,23.30
2018-03-25T06:56:57.949Z,25.13
2018-03-25T06:59:25.507Z,25.70
2018-03-25T07:01:53.081Z,23.30
2018-03-25T07:04:20.664Z,22.60
2018-03-25T07:06:48.992Z,20.90
2018-03-25T07:09:16.561Z,20.03
2018-03-25T07:11:44.117Z,21.73
2018-03-25T07:14:11.719Z,22.60
2018-03-25T07:16:40.045Z,21.30
2018-03-25T07:19:07.606Z,24.87
2018-03-25T07:21:35.146Z,23.10
2018-03-25T07:24:02.713Z,19.90
2018-03-25T07:26:30.275Z,24.93
2018-03-25T07:28:57.822Z,21.60
2018-03-25T07:31:26.158Z,22.50
2018-03-25T07:33:53.895Z,22.97
2018-03-25T07:36:22.298Z,22.70
2018-03-25T07:38:50.037Z,21.07
2018-03-25T07:41:17.574Z,21.73
2018-03-25T07:43:45.261Z,21.77
2018-03-25T07:46:12.818Z,22.77
2018-03-25T07:48:40.400Z,20.27
2018-03-25T07:51:07.954Z,21.20
2018-03-25T07:53:35.512Z,24.60
2018-03-25T07:56:03.065Z,23.37
2018-03-25T07:58:30.638Z,20.50
2018-03-25T08:00:58.213Z,23.93
2018-03-25T08:03:26.554Z,22.23
2018-03-25T08:05:54.114Z,22.73
2018-03-25T08:08:21.681Z,20.73
2018-03-25T08:10:49.241Z,21.53
2018-03-25T08:13:16.809Z,22.40
2018-03-25T08:15:44.391Z,21.20
2018-03-25T08:18:12.736Z,21.50
2018-03-25T08:20:40.348Z,21.20
2018-03-25T08:23:08.674Z,21.40
2018-03-25T08:25:36.271Z,22.40
2018-03-25T08:28:03.871Z,22.03
2018-03-25T08:30:31.433Z,20.43
2018-03-25T08:32:59.000Z,21.10
2018-03-25T08:35:26.576Z,21.80
2018-03-25T08:37:54.158Z,18.87
2018-03-25T08:40:21.714Z,20.23
2018-03-25T08:42:49.413Z,21.90
2018-03-25T08:45:17.767Z,21.57
2018-03-25T08:47:45.379Z,22.03
2018-03-25T08:50:12.934Z,22.47
2018-03-25T08:52:40.495Z,23.30
2018-03-25T08:55:08.092Z,24.20
2018-03-25T08:57:35.645Z,23.27
2018-03-25T09:00:03.189Z,23.53
2018-03-25T09:02:30.764Z,23.17
2018-03-25T09:04:58.352Z,23.90
2018-03-25T09:07:25.910Z,23.27
2018-03-25T09:09:54.387Z,24.27
2018-03-25T09:12:21.933Z,21.13
2018-03-25T09:14:49.500Z,22.83
2018-03-25T09:17:17.084Z,23.10
2018-03-25T09:19:45.414Z,23.00
2018-03-25T09:22:13.096Z,23.03
2018-03-25T09:24:40.664Z,28.20
2018-03-25T09:27:08.227Z,24.30
2018-03-25T09:29:35.786Z,21.53
2018-03-25T09:32:03.362Z,22.77
2018-03-25T09:34:30.944Z,24.30
2018-03-25T09:36:58.539Z,24.93
2018-03-25T09:39:26.077Z,23.87
2018-03-25T09:41:53.673Z,24.53
2018-03-25T09:44:21.226Z,25.07
2018-03-25T09:46:48.798Z,25.63
2018-03-25T09:49:16.358Z,23.33
2018-03-25T09:51:43.956Z,23.87
2018-03-25T09:54:12.361Z,26.63
2018-03-25T09:56:39.974Z,24.17
2018-03-25T09:59:07.578Z,25.43
2018-03-25T10:01:35.147Z,25.53
2018-03-25T10:04:02.720Z,25.57
2018-03-25T10:06:30.359Z,25.00
2018-03-25T10:08:57.920Z,23.30
2018-03-25T10:11:25.490Z,24.40
2018-03-25T10:13:53.082Z,28.23
2018-03-25T10:16:20.704Z,27.90
2018-03-25T10:18:48.262Z,27.67
2018-03-25T10:21:15.862Z,27.93
2018-03-25T10:23:43.431Z,27.43
2018-03-25T10:26:12.685Z,26.53
2018-03-25T10:28:40.290Z,22.77
2018-03-25T10:31:07.907Z,23.37
2018-03-25T10:33:35.510Z,24.13
2018-03-25T10:36:03.342Z,26.73
2018-03-25T10:38:30.893Z,24.77
2018-03-25T10:40:58.535Z,23.90
2018-03-25T10:43:26.052Z,24.80
2018-03-25T10:45:53.624Z,23.20
2018-03-25T10:48:21.246Z,25.33
2018-03-25T10:50:48.822Z,24.10
2018-03-25T10:53:16.404Z,25.07
2018-03-25T10:55:44.169Z,24.77
2018-03-25T10:58:11.742Z,21.07
2018-03-25T11:00:40.195Z,23.53
2018-03-25T11:03:07.773Z,23.43
2018-03-25T11:05:35.342Z,24.13
2018-03-25T11:08:03.685Z,23.03
2018-03-25T11:10:31.257Z,23.43
2018-03-25T11:12:58.837Z,22.03
2018-03-25T11:15:27.188Z,23.27
2018-03-25T11:17:54.788Z,21.93
2018-03-25T11:20:23.139Z,21.70
2018-03-25T11:22:50.717Z,20.30
2018-03-25T11:25:19.053Z,22.63
2018-03-25T11:27:46.637Z,23.07
2018-03-25T11:30:14.230Z,24.33
2018-03-25T11:32:42.587Z,22.63
2018-03-25T11:35:10.914Z,22.83
2018-03-25T11:37:38.493Z,22.47
2018-03-25T11:40:06.250Z,22.03
2018-03-25T11:42:33.833Z,22.23
2018-03-25T11:45:01.424Z,23.23
2018-03-25T11:47:29.836Z,22.73
2018-03-25T11:49:57.369Z,23.83
2018-03-25T11:52:25.757Z,22.07
2018-03-25T11:54:54.093Z,23.77
2018-03-25T11:57:21.676Z,22.93
2018-03-25T11:59:50.093Z,20.87
2018-03-25T12:02:17.662Z,20.73
2018-03-25T12:04:45.243Z,23.53
2018-03-25T12:07:12.798Z,21.17
2018-03-25T12:09:40.376Z,20.80
2018-03-25T12:12:07.965Z,19.90
2018-03-25T12:14:36.317Z,18.83
2018-03-25T12:17:03.874Z,19.77
2018-03-25T12:19:31.432Z,20.13
2018-03-25T12:21:59.005Z,20.67
2018-03-25T12:24:26.590Z,21.43
2018-03-25T12:26:54.942Z,20.50
2018-03-25T12:29:22.502Z,20.90
2018-03-25T12:31:50.859Z,21.97
2018-03-25T12:34:18.434Z,22.20
2018-03-25T12:36:45.997Z,22.10
2018-03-25T12:39:13.578Z,22.23
2018-03-25T12:41:41.924Z,21.43
2018-03-25T12:44:09.691Z,24.13
2018-03-25T12:46:37.366Z,22.13
2018-03-25T12:49:04.941Z,22.20
2018-03-25T12:51:33.268Z,22.27
2018-03-25T12:54:01.006Z,19.40
2018-03-25T12:56:28.608Z,22.33
2018-03-25T12:58:56.172Z,22.13
2018-03-25T13:01:23.765Z,19.23
2018-03-25T13:03:52.082Z,20.30
2018-03-25T13:06:19.671Z,21.70
2018-03-25T13:08:47.264Z,20.63
2018-03-25T13:11:15.609Z,22.53
2018-03-25T13:13:43.172Z,19.63
2018-03-25T13:16:10.768Z,21.10
2018-03-25T13:18:39.084Z,21.60
2018-03-25T13:21:06.921Z,21.47
2018-03-25T13:23:34.479Z,21.53
2018-03-25T13:26:02.047Z,21.53
2018-03-25T13:28:29.610Z,21.67
2018-03-25T13:30:57.196Z,21.57
2018-03-25T13:33:24.745Z,22.30
2018-03-25T13:35:52.356Z,23.47
2018-03-25T13:38:19.962Z,23.27
2018-03-25T13:40:47.541Z,22.13
2018-03-25T13:43:15.111Z,19.63
2018-03-25T13:45:42.681Z,19.20
2018-03-25T13:48:11.797Z,21.63
2018-03-25T13:50:40.217Z,26.13
2018-03-25T13:53:07.805Z,20.63
2018-03-25T13:55:35.385Z,20.63
2018-03-25T13:58:02.997Z,22.13
2018-03-25T14:00:30.598Z,21.57
2018-03-25T14:02:58.158Z,22.53
2018-03-25T14:05:25.711Z,21.90
2018-03-25T14:07:53.287Z,24.03
2018-03-25T14:10:20.875Z,19.90
2018-03-25T14:12:49.216Z,22.90
2018-03-25T14:15:16.784Z,23.37
2018-03-25T14:17:44.377Z,20.07
2018-03-25T14:20:11.939Z,22.13
2018-03-25T14:22:39.672Z,21.93
2018-03-25T14:25:07.246Z,22.43
2018-03-25T14:27:35.579Z,22.43
2018-03-25T14:30:03.212Z,21.63
2018-03-25T14:32:31.517Z,25.80
2018-03-25T14:34:59.086Z,23.90
2018-03-25T14:37:26.644Z,23.03
2018-03-25T14:39:54.266Z,22.87
2018-03-25T14:42:21.852Z,22.97
2018-03-25T14:44:49.473Z,21.53
2018-03-25T14:47:17.790Z,21.53
2018-03-25T14:49:45.486Z,20.60
2018-03-25T14:52:13.131Z,20.67
2018-03-25T14:54:40.926Z,21.27
2018-03-25T14:57:08.532Z,21.07
2018-03-25T14:59:36.085Z,21.60
2018-03-25T15:02:03.725Z,23.30
2018-03-25T15:04:32.101Z,21.70
2018-03-25T15:07:00.756Z,22.47
2018-03-25T15:09:28.601Z,21.80
2018-03-25T15:11:56.199Z,22.67
2018-03-25T15:14:23.753Z,23.33
2018-03-25T15:16:51.348Z,20.47
2018-03-25T15:19:18.913Z,24.80
2018-03-25T15:21:46.485Z,26.87
2018-03-25T15:24:14.038Z,22.67
2018-03-25T15:26:41.730Z,28.00
2018-03-25T15:29:09.291Z,26.90
2018-03-25T15:31:36.917Z,24.60
2018-03-25T15:34:04.490Z,29.30
2018-03-25T15:36:32.074Z,26.60
2018-03-25T15:38:59.653Z,26.13
2018-03-25T15:41:27.217Z,28.13
2018-03-25T15:43:54.788Z,26.20
2018-03-25T15:46:23.333Z,24.30
2018-03-25T15:48:50.953Z,25.57
2018-03-25T15:51:18.517Z,24.23
2018-03-25T15:53:46.096Z,26.20
2018-03-25T15:56:13.665Z,24.07
2018-03-25T15:58:41.237Z,26.90
2018-03-25T16:01:09.649Z,23.37
2018-03-25T16:03:39.033Z,23.27
2018-03-25T16:06:06.671Z,26.63
2018-03-25T16:08:34.237Z,24.53
2018-03-25T16:11:01.806Z,25.13
2018-03-25T16:13:29.549Z,27.43
2018-03-25T16:15:57.182Z,25.17
2018-03-25T16:18:24.770Z,25.47
2018-03-25T16:20:52.450Z,26.03
2018-03-25T16:23:20.024Z,28.70
2018-03-25T16:25:48.753Z,26.53
2018-03-25T16:28:16.339Z,27.53
2018-03-25T16:30:43.916Z,27.77
2018-03-25T16:33:11.492Z,25.07
2018-03-25T16:35:39.049Z,25.97
2018-03-25T16:38:06.644Z,27.53
2018-03-25T16:40:34.991Z,29.50
2018-03-25T16:43:05.403Z,28.03
2018-03-25T16:45:33.020Z,29.80
2018-03-25T16:48:01.336Z,27.20
2018-03-25T16:50:28.927Z,28.87
2018-03-25T16:52:56.509Z,28.93
2018-03-25T16:55:24.833Z,27.17
2018-03-25T16:57:52.408Z,25.73
2018-03-25T17:00:19.985Z,26.17
2018-03-25T17:02:47.556Z,25.13
2018-03-25T17:05:15.113Z,25.17
2018-03-25T17:07:42.690Z,27.90
2018-03-25T17:10:11.017Z,30.23
2018-03-25T17:12:38.589Z,38.33
2018-03-25T17:15:06.180Z,32.87
2018-03-25T17:17:34.527Z,38.60
2018-03-25T17:20:02.054Z,44.30
2018-03-25T17:22:29.629Z,42.37
2018-03-25T17:24:57.210Z,34.03
2018-03-25T17:27:24.773Z,38.50
2018-03-25T17:29:52.350Z,41.87
2018-03-25T17:32:19.913Z,46.70
2018-03-25T17:34:47.486Z,40.83
2018-03-25T17:37:15.811Z,39.27
2018-03-25T17:39:43.381Z,41.87
2018-03-25T17:42:10.949Z,45.00
2018-03-25T17:44:38.560Z,43.13
2018-03-25T17:47:06.131Z,50.83
2018-03-25T17:49:33.677Z,51.87
2018-03-25T17:52:01.252Z,42.00
2018-03-25T17:54:28.916Z,40.27
2018-03-25T17:56:56.490Z,35.80
2018-03-25T17:59:24.050Z,41.80
2018-03-25T18:01:51.653Z,41.87
2018-03-25T18:04:19.273Z,38.17
2018-03-25T18:06:46.868Z,43.63
2018-03-25T18:09:15.187Z,38.47
2018-03-25T18:11:42.789Z,43.03
2018-03-25T18:14:10.337Z,39.70
2018-03-25T18:16:37.896Z,41.67
2018-03-25T18:19:05.478Z,39.47
2018-03-25T18:21:33.049Z,43.73
2018-03-25T18:24:00.722Z,49.20
2018-03-25T18:26:29.218Z,47.87
2018-03-25T18:28:57.572Z,48.00
2018-03-25T18:31:25.186Z,42.30
2018-03-25T18:33:53.036Z,39.93
2018-03-25T18:36:20.623Z,37.30
2018-03-25T18:38:48.268Z,33.33
2018-03-25T18:41:15.884Z,37.80
2018-03-25T18:43:43.456Z,35.70
2018-03-25T18:46:11.808Z,36.93
2018-03-25T18:48:39.389Z,35.80
2018-03-25T18:51:07.737Z,36.27
2018-03-25T18:53:35.295Z,36.47
2018-03-25T18:56:02.962Z,37.50
2018-03-25T18:58:30.545Z,35.30
2018-03-25T19:00:58.137Z,36.60
2018-03-25T19:03:26.470Z,38.70
2018-03-25T19:05:54.053Z,39.00
2018-03-25T19:08:22.369Z,36.43
2018-03-25T19:10:49.947Z,34.07
2018-03-25T19:13:17.526Z,38.30
2018-03-25T19:15:45.137Z,37.10
2018-03-25T19:18:12.693Z,39.77
2018-03-25T19:20:40.313Z,38.53
2018-03-25T19:23:07.966Z,40.20
2018-03-25T19:25:35.538Z,39.00
2018-03-25T19:28:03.102Z,40.80
2018-03-25T19:30:30.694Z,40.00
2018-03-25T19:32:58.258Z,41.97
2018-03-25T19:35:25.809Z,39.87
2018-03-25T19:37:53.386Z,37.60
2018-03-25T19:40:20.987Z,39.00
2018-03-25T19:42:48.574Z,39.93
2018-03-25T19:45:16.913Z,36.47
2018-03-25T19:47:44.544Z,38.87
2018-03-25T19:50:12.107Z,40.03
2018-03-25T19:52:39.653Z,37.67
2018-03-25T19:55:07.265Z,37.40
2018-03-25T19:57:34.858Z,40.93
2018-03-25T20:00:02.472Z,40.37
2018-03-25T20:02:30.093Z,40.23
2018-03-25T20:04:58.453Z,39.67
2018-03-25T20:07:26.825Z,40.80
2018-03-25T20:09:54.373Z,36.00
2018-03-25T20:12:21.946Z,37.53
2018-03-25T20:14:49.610Z,39.27
2018-03-25T20:17:17.451Z,41.00
2018-03-25T20:19:45.021Z,41.37
2018-03-25T20:22:13.464Z,42.43
2018-03-25T20:24:40.984Z,40.73
2018-03-25T20:27:08.625Z,40.50
2018-03-25T20:29:36.207Z,39.60
2018-03-25T20:32:04.569Z,43.57
2018-03-25T20:34:32.181Z,40.63
2018-03-25T20:36:59.750Z,40.27
2018-03-25T20:39:27.308Z,42.47
2018-03-25T20:41:54.908Z,39.60
2018-03-25T20:44:22.494Z,48.37
2018-03-25T20:46:50.918Z,42.70
2018-03-25T20:49:18.476Z,45.80
2018-03-25T20:51:46.053Z,46.40
2018-03-25T20:54:13.640Z,44.73
2018-03-25T20:56:41.249Z,44.83
2018-03-25T20:59:08.908Z,41.30
2018-03-25T21:01:36.490Z,41.83
2018-03-25T21:04:04.042Z,39.83
2018-03-25T21:06:31.687Z,42.80
2018-03-25T21:08:59.238Z,41.07
2018-03-25T21:11:26.813Z,38.53
2018-03-25T21:13:54.384Z,42.30
2018-03-25T21:16:21.962Z,42.17
2018-03-25T21:18:49.526Z,43.37
2018-03-25T21:21:17.879Z,40.80
2018-03-25T21:23:45.441Z,40.97
2018-03-25T21:26:13.022Z,44.17
2018-03-25T21:28:40.570Z,40.83
2018-03-25T21:31:08.542Z,42.30
2018-03-25T21:33:36.077Z,43.77
2018-03-25T21:36:03.655Z,41.10
2018-03-25T21:38:31.208Z,44.10
2018-03-25T21:40:58.960Z,41.73
2018-03-25T21:43:26.530Z,41.33
2018-03-25T21:45:54.082Z,40.47
2018-03-25T21:48:21.701Z,43.07
2018-03-25T21:50:50.029Z,40.90
2018-03-25T21:53:17.617Z,40.70
2018-03-25T21:55:45.195Z,41.53
2018-03-25T21:58:12.765Z,40.47
2018-03-25T22:00:41.090Z,49.27
2018-03-25T22:03:08.686Z,44.33
2018-03-25T22:05:36.243Z,41.23
2018-03-25T22:08:03.833Z,39.23
2018-03-25T22:10:32.345Z,41.67
2018-03-25T22:12:59.953Z,39.43
2018-03-25T22:15:27.519Z,41.37
2018-03-25T22:17:55.089Z,42.53
2018-03-25T22:20:23.424Z,43.10
2018-03-25T22:22:50.989Z,43.37
2018-03-25T22:25:18.549Z,41.60
2018-03-25T22:27:46.126Z,37.23
2018-03-25T22:30:13.702Z,38.40
2018-03-25T22:32:41.240Z,36.37
2018-03-25T22:35:08.848Z,37.90
2018-03-25T22:37:36.405Z,35.37
2018-03-25T22:40:03.965Z,36.70
2018-03-25T22:42:31.518Z,39.40
2018-03-25T22:44:59.104Z,39.63
2018-03-25T22:47:26.644Z,37.70
2018-03-25T22:49:54.195Z,37.23
2018-03-25T22:52:22.673Z,38.83
2018-03-25T22:54:51.010Z,41.50
2018-03-25T22:57:18.773Z,40.70
2018-03-25T22:59:46.330Z,36.73
2018-03-25T23:02:14.001Z,37.53
2018-03-25T23:04:41.559Z,39.07
2018-03-25T23:07:09.135Z,35.43
2018-03-25T23:09:36.690Z,39.93
2018-03-25T23:12:04.284Z,37.63
2018-03-25T23:14:32.609Z,38.97
2018-03-25T23:17:00.168Z,37.87
2018-03-25T23:19:27.758Z,39.60
2018-03-25T23:21:55.330Z,38.40
2018-03-25T23:24:23.745Z,37.80
2018-03-25T23:26:51.301Z,37.07
2018-03-25T23:29:18.861Z,39.37
2018-03-25T23:31:46.418Z,40.73
2018-03-25T23:34:13.987Z,37.43
2018-03-25T23:36:41.549Z,38.17
2018-03-25T23:39:09.992Z,42.53
2018-03-25T23:41:38.298Z,40.60
2018-03-25T23:44:05.921Z,38.27
2018-03-25T23:46:34.251Z,38.33
2018-03-25T23:49:01.816Z,43.23
2018-03-25T23:51:29.376Z,37.73
2018-03-25T23:53:56.943Z,38.67
2018-03-25T23:56:24.490Z,39.63
2018-03-25T23:58:52.066Z,43.27
